createdAt,value
2022-09-02T00:04:01.796Z,51.54
2022-09-02T00:08:59.637Z,51.58
2022-09-02T00:13:57.019Z,51.99
2022-09-02T00:18:53.527Z,51.70
2022-09-02T00:23:50.064Z,51.82
2022-09-02T00:28:51.002Z,51.83
2022-09-02T00:33:53.341Z,51.84
2022-09-02T00:38:49.849Z,51.94
2022-09-02T00:43:47.543Z,52.03
2022-09-02T00:48:57.498Z,52.06
2022-09-02T00:53:54.188Z,52.44
2022-09-02T00:58:50.515Z,52.27
2022-09-02T01:03:46.835Z,52.61
2022-09-02T01:08:44.884Z,52.39
2022-09-02T01:13:42.199Z,52.57
2022-09-02T01:18:38.906Z,52.48
2022-09-02T01:23:35.280Z,52.68
2022-09-02T01:28:33.428Z,52.81
2022-09-02T01:33:29.756Z,52.68
2022-09-02T01:38:28.875Z,52.80
2022-09-02T01:43:25.929Z,52.87
2022-09-02T01:48:22.484Z,53.00
2022-09-02T01:53:18.943Z,53.07
2022-09-02T01:58:15.314Z,53.39
2022-09-02T02:03:11.716Z,53.49
2022-09-02T02:08:08.153Z,53.55
2022-09-02T02:13:04.485Z,53.43
2022-09-02T02:18:00.801Z,53.45
2022-09-02T02:22:57.127Z,53.53
2022-09-02T02:27:53.550Z,53.52
2022-09-02T02:32:49.986Z,53.94
2022-09-02T02:37:49.095Z,53.77
2022-09-02T02:42:45.621Z,53.93
2022-09-02T02:47:42.682Z,54.20
2022-09-02T02:52:39.720Z,54.22
2022-09-02T02:57:36.401Z,54.03
2022-09-02T03:02:33.272Z,54.52
2022-09-02T03:07:30.071Z,54.41
2022-09-02T03:12:26.490Z,54.47
2022-09-02T03:17:22.839Z,54.65
2022-09-02T03:22:19.141Z,54.73
2022-09-02T03:27:15.489Z,54.74
2022-09-02T03:32:11.821Z,54.78
2022-09-02T03:37:11.204Z,54.80
2022-09-02T03:42:07.693Z,54.82
2022-09-02T03:47:17.627Z,54.85
2022-09-02T03:52:17.049Z,54.87
2022-09-02T03:57:13.437Z,54.96
2022-09-02T04:02:09.878Z,55.25
2022-09-02T04:07:07.453Z,55.22
2022-09-02T04:12:04.291Z,55.41
2022-09-02T04:17:00.860Z,55.32
2022-09-02T04:21:57.184Z,55.37
2022-09-02T04:26:53.596Z,55.39
2022-09-02T04:31:50.047Z,55.44
2022-09-02T04:36:46.802Z,55.61
2022-09-02T04:41:43.316Z,55.78
2022-09-02T04:46:40.119Z,55.50
2022-09-02T04:51:57.984Z,56.75
2022-09-02T04:56:54.522Z,57.20
2022-09-02T05:01:52.144Z,57.52
2022-09-02T05:06:49.045Z,57.78
2022-09-02T05:11:47.908Z,58.51
2022-09-02T05:58:40.444Z,59.50
2022-09-02T06:10:43.380Z,59.47
2022-09-02T07:16:22.734Z,57.06
2022-09-02T07:21:26.488Z,57.00
2022-09-02T07:27:07.541Z,56.96
2022-09-02T10:05:26.395Z,49.77
2022-09-02T14:16:40.667Z,40.25
2022-09-02T19:33:06.812Z,42.07
2022-09-02T19:38:03.437Z,42.19
2022-09-02T19:43:03.279Z,42.28
2022-09-02T19:48:08.601Z,42.43
2022-09-02T19:53:06.433Z,42.46
2022-09-02T20:09:30.791Z,42.99
2022-09-02T20:14:28.485Z,43.18
